sensor_id;sensor_type;location;lat;lon;timestamp;P1;durP1;ratioP1;P2;durP2;ratioP2
21424;SDS011;10873;51.132;16.848;2023-07-31T00:00:45;1.98;;;0.98;;
21424;SDS011;10873;51.132;16.848;2023-07-31T00:03:25;1.65;;;0.95;;
21424;SDS011;10873;51.132;16.848;2023-07-31T00:05:53;2.40;;;1.02;;
21424;SDS011;10873;51.132;16.848;2023-07-31T00:08:18;1.10;;;1.00;;
21424;SDS011;10873;51.132;16.848;2023-07-31T00:10:45;1.02;;;0.90;;
21424;SDS011;10873;51.132;16.848;2023-07-31T00:13:10;1.13;;;0.80;;
21424;SDS011;10873;51.132;16.848;2023-07-31T00:15:37;1.63;;;1.00;;
21424;SDS011;10873;51.132;16.848;2023-07-31T00:18:02;2.08;;;1.10;;
21424;SDS011;10873;51.132;16.848;2023-07-31T00:20:29;1.65;;;1.10;;
21424;SDS011;10873;51.132;16.848;2023-07-31T00:22:56;1.58;;;1.15;;
21424;SDS011;10873;51.132;16.848;2023-07-31T00:25:22;1.55;;;1.10;;
21424;SDS011;10873;51.132;16.848;2023-07-31T00:27:48;2.10;;;1.20;;
21424;SDS011;10873;51.132;16.848;2023-07-31T00:30:14;2.72;;;1.10;;
21424;SDS011;10873;51.132;16.848;2023-07-31T00:36:02;1.40;;;0.85;;
21424;SDS011;10873;51.132;16.848;2023-07-31T00:38:29;2.88;;;1.00;;
21424;SDS011;10873;51.132;16.848;2023-07-31T00:40:55;1.15;;;0.90;;
21424;SDS011;10873;51.132;16.848;2023-07-31T00:43:21;2.17;;;0.98;;
21424;SDS011;10873;51.132;16.848;2023-07-31T00:45:48;3.10;;;0.93;;
21424;SDS011;10873;51.132;16.848;2023-07-31T00:48:14;1.50;;;1.08;;
21424;SDS011;10873;51.132;16.848;2023-07-31T00:50:40;1.08;;;0.88;;
21424;SDS011;10873;51.132;16.848;2023-07-31T00:53:06;1.52;;;1.00;;
21424;SDS011;10873;51.132;16.848;2023-07-31T00:55:34;1.50;;;1.00;;
21424;SDS011;10873;51.132;16.848;2023-07-31T00:58:00;1.13;;;0.82;;
21424;SDS011;10873;51.132;16.848;2023-07-31T01:00:26;4.45;;;1.30;;
21424;SDS011;10873;51.132;16.848;2023-07-31T01:02:52;2.00;;;1.08;;
21424;SDS011;10873;51.132;16.848;2023-07-31T01:05:19;2.05;;;1.00;;
21424;SDS011;10873;51.132;16.848;2023-07-31T01:07:55;1.35;;;1.00;;
21424;SDS011;10873;51.132;16.848;2023-07-31T01:10:26;2.33;;;1.00;;
21424;SDS011;10873;51.132;16.848;2023-07-31T01:12:57;1.40;;;1.02;;
21424;SDS011;10873;51.132;16.848;2023-07-31T01:15:24;1.65;;;1.20;;
21424;SDS011;10873;51.132;16.848;2023-07-31T01:17:50;2.75;;;1.10;;
21424;SDS011;10873;51.132;16.848;2023-07-31T01:20:17;1.05;;;0.80;;
21424;SDS011;10873;51.132;16.848;2023-07-31T01:22:54;1.17;;;0.80;;
21424;SDS011;10873;51.132;16.848;2023-07-31T01:25:50;1.90;;;0.88;;
21424;SDS011;10873;51.132;16.848;2023-07-31T01:28:25;3.38;;;1.00;;
21424;SDS011;10873;51.132;16.848;2023-07-31T01:30:56;0.90;;;0.77;;
21424;SDS011;10873;51.132;16.848;2023-07-31T01:33:25;1.33;;;0.85;;
21424;SDS011;10873;51.132;16.848;2023-07-31T01:35:51;1.10;;;0.95;;
21424;SDS011;10873;51.132;16.848;2023-07-31T01:38:20;2.05;;;0.98;;
21424;SDS011;10873;51.132;16.848;2023-07-31T01:40:46;3.47;;;0.85;;
21424;SDS011;10873;51.132;16.848;2023-07-31T01:43:18;1.52;;;0.80;;
21424;SDS011;10873;51.132;16.848;2023-07-31T01:45:44;1.63;;;0.90;;
21424;SDS011;10873;51.132;16.848;2023-07-31T01:48:10;1.40;;;0.90;;
21424;SDS011;10873;51.132;16.848;2023-07-31T01:50:37;4.07;;;1.35;;
21424;SDS011;10873;51.132;16.848;2023-07-31T01:53:02;1.20;;;0.82;;
21424;SDS011;10873;51.132;16.848;2023-07-31T01:55:29;2.40;;;1.05;;
21424;SDS011;10873;51.132;16.848;2023-07-31T01:57:56;3.50;;;0.93;;
21424;SDS011;10873;51.132;16.848;2023-07-31T02:00:22;1.15;;;0.90;;
21424;SDS011;10873;51.132;16.848;2023-07-31T02:02:48;2.17;;;0.80;;
21424;SDS011;10873;51.132;16.848;2023-07-31T02:05:14;1.00;;;0.85;;
21424;SDS011;10873;51.132;16.848;2023-07-31T02:07:40;1.75;;;0.90;;
21424;SDS011;10873;51.132;16.848;2023-07-31T02:10:07;2.00;;;0.77;;
21424;SDS011;10873;51.132;16.848;2023-07-31T02:12:33;1.48;;;1.13;;
21424;SDS011;10873;51.132;16.848;2023-07-31T02:15:01;2.65;;;1.10;;
21424;SDS011;10873;51.132;16.848;2023-07-31T02:17:27;3.97;;;1.00;;
21424;SDS011;10873;51.132;16.848;2023-07-31T02:19:53;1.00;;;0.90;;
21424;SDS011;10873;51.132;16.848;2023-07-31T02:22:19;2.72;;;0.77;;
21424;SDS011;10873;51.132;16.848;2023-07-31T02:24:45;2.35;;;0.90;;
21424;SDS011;10873;51.132;16.848;2023-07-31T02:27:11;2.35;;;1.02;;
21424;SDS011;10873;51.132;16.848;2023-07-31T02:29:38;1.63;;;1.10;;
21424;SDS011;10873;51.132;16.848;2023-07-31T02:32:05;1.42;;;0.77;;
21424;SDS011;10873;51.132;16.848;2023-07-31T02:34:32;1.90;;;1.10;;
21424;SDS011;10873;51.132;16.848;2023-07-31T02:36:58;1.30;;;0.95;;
21424;SDS011;10873;51.132;16.848;2023-07-31T02:39:24;1.67;;;0.90;;
21424;SDS011;10873;51.132;16.848;2023-07-31T02:41:50;2.10;;;0.90;;
21424;SDS011;10873;51.132;16.848;2023-07-31T02:44:16;1.23;;;1.10;;
21424;SDS011;10873;51.132;16.848;2023-07-31T02:46:41;1.40;;;0.95;;
21424;SDS011;10873;51.132;16.848;2023-07-31T02:49:09;2.08;;;1.08;;
21424;SDS011;10873;51.132;16.848;2023-07-31T02:51:35;2.03;;;0.85;;
21424;SDS011;10873;51.132;16.848;2023-07-31T02:54:01;1.00;;;0.80;;
21424;SDS011;10873;51.132;16.848;2023-07-31T02:56:27;3.30;;;0.95;;
21424;SDS011;10873;51.132;16.848;2023-07-31T02:58:53;2.35;;;1.05;;
21424;SDS011;10873;51.132;16.848;2023-07-31T03:01:19;2.42;;;0.98;;
21424;SDS011;10873;51.132;16.848;2023-07-31T03:03:45;1.25;;;0.90;;
21424;SDS011;10873;51.132;16.848;2023-07-31T03:06:12;3.60;;;1.00;;
21424;SDS011;10873;51.132;16.848;2023-07-31T03:08:38;2.08;;;0.90;;
21424;SDS011;10873;51.132;16.848;2023-07-31T03:11:04;1.90;;;1.00;;
21424;SDS011;10873;51.132;16.848;2023-07-31T03:13:30;1.50;;;1.00;;
21424;SDS011;10873;51.132;16.848;2023-07-31T03:15:56;2.25;;;1.10;;
21424;SDS011;10873;51.132;16.848;2023-07-31T03:18:22;1.38;;;0.90;;
21424;SDS011;10873;51.132;16.848;2023-07-31T03:20:48;3.75;;;1.00;;
21424;SDS011;10873;51.132;16.848;2023-07-31T03:23:16;1.75;;;1.00;;
21424;SDS011;10873;51.132;16.848;2023-07-31T03:25:54;2.22;;;1.10;;
21424;SDS011;10873;51.132;16.848;2023-07-31T03:28:21;3.30;;;0.98;;
21424;SDS011;10873;51.132;16.848;2023-07-31T03:30:47;2.15;;;0.98;;
21424;SDS011;10873;51.132;16.848;2023-07-31T03:33:14;2.80;;;1.20;;
21424;SDS011;10873;51.132;16.848;2023-07-31T03:35:39;3.00;;;0.90;;
21424;SDS011;10873;51.132;16.848;2023-07-31T03:38:06;1.58;;;0.90;;
21424;SDS011;10873;51.132;16.848;2023-07-31T03:40:33;3.33;;;1.02;;
21424;SDS011;10873;51.132;16.848;2023-07-31T03:42:59;1.65;;;0.85;;
21424;SDS011;10873;51.132;16.848;2023-07-31T03:45:25;1.50;;;0.98;;
21424;SDS011;10873;51.132;16.848;2023-07-31T03:47:51;1.13;;;0.80;;
21424;SDS011;10873;51.132;16.848;2023-07-31T03:50:18;4.18;;;0.98;;
21424;SDS011;10873;51.132;16.848;2023-07-31T03:52:44;1.42;;;1.20;;
21424;SDS011;10873;51.132;16.848;2023-07-31T03:55:10;4.15;;;0.95;;
21424;SDS011;10873;51.132;16.848;2023-07-31T03:57:38;1.10;;;1.00;;
21424;SDS011;10873;51.132;16.848;2023-07-31T04:00:04;1.77;;;0.82;;
21424;SDS011;10873;51.132;16.848;2023-07-31T04:02:31;2.20;;;1.17;;
21424;SDS011;10873;51.132;16.848;2023-07-31T04:04:57;1.85;;;1.02;;
21424;SDS011;10873;51.132;16.848;2023-07-31T04:07:23;2.03;;;0.98;;
21424;SDS011;10873;51.132;16.848;2023-07-31T04:09:49;1.42;;;1.00;;
21424;SDS011;10873;51.132;16.848;2023-07-31T04:12:15;1.55;;;0.90;;
21424;SDS011;10873;51.132;16.848;2023-07-31T04:14:42;2.10;;;1.02;;
21424;SDS011;10873;51.132;16.848;2023-07-31T04:17:09;3.50;;;1.00;;
21424;SDS011;10873;51.132;16.848;2023-07-31T04:19:34;2.13;;;0.77;;
21424;SDS011;10873;51.132;16.848;2023-07-31T04:22:01;2.25;;;0.95;;
21424;SDS011;10873;51.132;16.848;2023-07-31T04:24:27;1.60;;;0.90;;
21424;SDS011;10873;51.132;16.848;2023-07-31T04:26:53;1.65;;;1.10;;
21424;SDS011;10873;51.132;16.848;2023-07-31T04:29:19;2.80;;;0.90;;
21424;SDS011;10873;51.132;16.848;2023-07-31T04:31:47;3.05;;;0.93;;
21424;SDS011;10873;51.132;16.848;2023-07-31T04:34:13;2.28;;;1.17;;
21424;SDS011;10873;51.132;16.848;2023-07-31T04:36:40;1.30;;;0.80;;
21424;SDS011;10873;51.132;16.848;2023-07-31T04:39:05;1.77;;;1.10;;
21424;SDS011;10873;51.132;16.848;2023-07-31T04:41:32;2.30;;;0.95;;
21424;SDS011;10873;51.132;16.848;2023-07-31T04:43:57;5.88;;;1.40;;
21424;SDS011;10873;51.132;16.848;2023-07-31T04:46:24;5.10;;;1.17;;
21424;SDS011;10873;51.132;16.848;2023-07-31T04:48:51;9.32;;;2.42;;
21424;SDS011;10873;51.132;16.848;2023-07-31T04:51:17;7.72;;;2.40;;
21424;SDS011;10873;51.132;16.848;2023-07-31T04:53:43;12.40;;;2.38;;
21424;SDS011;10873;51.132;16.848;2023-07-31T04:56:09;5.90;;;2.13;;
21424;SDS011;10873;51.132;16.848;2023-07-31T04:58:35;6.38;;;1.70;;
21424;SDS011;10873;51.132;16.848;2023-07-31T05:01:02;4.32;;;1.63;;
21424;SDS011;10873;51.132;16.848;2023-07-31T05:03:27;4.82;;;1.85;;
21424;SDS011;10873;51.132;16.848;2023-07-31T05:05:55;6.82;;;1.95;;
21424;SDS011;10873;51.132;16.848;2023-07-31T05:08:21;8.35;;;1.90;;
21424;SDS011;10873;51.132;16.848;2023-07-31T05:10:47;8.45;;;1.80;;
21424;SDS011;10873;51.132;16.848;2023-07-31T05:13:14;5.70;;;1.80;;
21424;SDS011;10873;51.132;16.848;2023-07-31T05:15:40;5.72;;;2.10;;
21424;SDS011;10873;51.132;16.848;2023-07-31T05:18:06;9.75;;;2.33;;
21424;SDS011;10873;51.132;16.848;2023-07-31T05:20:32;11.65;;;1.98;;
21424;SDS011;10873;51.132;16.848;2023-07-31T05:22:59;7.25;;;1.95;;
21424;SDS011;10873;51.132;16.848;2023-07-31T05:25:26;5.25;;;1.90;;
21424;SDS011;10873;51.132;16.848;2023-07-31T05:27:51;7.25;;;1.55;;
21424;SDS011;10873;51.132;16.848;2023-07-31T05:30:18;7.70;;;2.00;;
21424;SDS011;10873;51.132;16.848;2023-07-31T05:32:44;6.50;;;1.90;;
21424;SDS011;10873;51.132;16.848;2023-07-31T05:35:10;5.82;;;1.63;;
21424;SDS011;10873;51.132;16.848;2023-07-31T05:37:36;4.25;;;1.50;;
21424;SDS011;10873;51.132;16.848;2023-07-31T05:40:04;5.60;;;1.65;;
21424;SDS011;10873;51.132;16.848;2023-07-31T05:42:31;6.25;;;1.80;;
21424;SDS011;10873;51.132;16.848;2023-07-31T05:44:57;6.45;;;1.77;;
21424;SDS011;10873;51.132;16.848;2023-07-31T05:47:23;4.25;;;1.63;;
21424;SDS011;10873;51.132;16.848;2023-07-31T05:49:49;7.97;;;1.73;;
21424;SDS011;10873;51.132;16.848;2023-07-31T05:52:17;4.60;;;1.70;;
21424;SDS011;10873;51.132;16.848;2023-07-31T05:54:44;3.88;;;1.35;;
21424;SDS011;10873;51.132;16.848;2023-07-31T06:10:18;4.85;;;1.50;;
21424;SDS011;10873;51.132;16.848;2023-07-31T06:12:44;5.45;;;1.77;;
21424;SDS011;10873;51.132;16.848;2023-07-31T06:15:10;4.45;;;1.65;;
21424;SDS011;10873;51.132;16.848;2023-07-31T06:17:36;4.93;;;1.77;;
21424;SDS011;10873;51.132;16.848;2023-07-31T06:20:03;9.00;;;1.77;;
21424;SDS011;10873;51.132;16.848;2023-07-31T06:22:32;5.05;;;1.50;;
21424;SDS011;10873;51.132;16.848;2023-07-31T06:24:58;3.97;;;1.85;;
21424;SDS011;10873;51.132;16.848;2023-07-31T06:27:25;5.22;;;1.75;;
21424;SDS011;10873;51.132;16.848;2023-07-31T06:29:51;3.72;;;1.45;;
21424;SDS011;10873;51.132;16.848;2023-07-31T06:32:18;3.25;;;1.50;;
21424;SDS011;10873;51.132;16.848;2023-07-31T06:34:43;2.30;;;1.30;;
21424;SDS011;10873;51.132;16.848;2023-07-31T06:37:10;4.28;;;1.48;;
21424;SDS011;10873;51.132;16.848;2023-07-31T06:39:35;5.65;;;1.80;;
21424;SDS011;10873;51.132;16.848;2023-07-31T06:42:03;3.72;;;1.48;;
21424;SDS011;10873;51.132;16.848;2023-07-31T06:44:30;6.28;;;1.30;;
21424;SDS011;10873;51.132;16.848;2023-07-31T06:46:57;4.75;;;1.40;;
21424;SDS011;10873;51.132;16.848;2023-07-31T06:49:23;3.75;;;1.35;;
21424;SDS011;10873;51.132;16.848;2023-07-31T06:51:49;4.82;;;1.75;;
21424;SDS011;10873;51.132;16.848;2023-07-31T06:54:15;6.03;;;1.40;;
21424;SDS011;10873;51.132;16.848;2023-07-31T06:56:41;5.22;;;1.80;;
21424;SDS011;10873;51.132;16.848;2023-07-31T06:59:07;6.78;;;1.45;;
21424;SDS011;10873;51.132;16.848;2023-07-31T07:01:34;3.40;;;1.58;;
21424;SDS011;10873;51.132;16.848;2023-07-31T07:04:00;2.97;;;1.40;;
21424;SDS011;10873;51.132;16.848;2023-07-31T07:06:26;3.60;;;1.58;;
21424;SDS011;10873;51.132;16.848;2023-07-31T07:08:52;4.72;;;1.48;;
21424;SDS011;10873;51.132;16.848;2023-07-31T07:11:19;3.97;;;1.60;;
21424;SDS011;10873;51.132;16.848;2023-07-31T07:13:45;3.40;;;1.45;;
21424;SDS011;10873;51.132;16.848;2023-07-31T07:16:11;5.32;;;1.60;;
21424;SDS011;10873;51.132;16.848;2023-07-31T07:18:38;3.38;;;1.35;;
21424;SDS011;10873;51.132;16.848;2023-07-31T07:21:04;3.53;;;1.20;;
21424;SDS011;10873;51.132;16.848;2023-07-31T07:23:30;3.85;;;1.50;;
21424;SDS011;10873;51.132;16.848;2023-07-31T07:25:57;3.20;;;1.50;;
21424;SDS011;10873;51.132;16.848;2023-07-31T07:28:22;2.80;;;1.33;;
21424;SDS011;10873;51.132;16.848;2023-07-31T07:30:50;5.68;;;1.25;;
21424;SDS011;10873;51.132;16.848;2023-07-31T07:33:17;4.72;;;1.08;;
21424;SDS011;10873;51.132;16.848;2023-07-31T07:35:45;4.60;;;1.65;;
21424;SDS011;10873;51.132;16.848;2023-07-31T07:38:11;3.80;;;1.42;;
21424;SDS011;10873;51.132;16.848;2023-07-31T07:40:38;7.65;;;1.42;;
21424;SDS011;10873;51.132;16.848;2023-07-31T07:43:04;5.45;;;1.60;;
21424;SDS011;10873;51.132;16.848;2023-07-31T07:45:30;2.70;;;1.30;;
21424;SDS011;10873;51.132;16.848;2023-07-31T07:47:56;5.80;;;1.50;;
21424;SDS011;10873;51.132;16.848;2023-07-31T07:50:24;3.08;;;1.42;;
21424;SDS011;10873;51.132;16.848;2023-07-31T07:52:52;3.28;;;1.30;;
21424;SDS011;10873;51.132;16.848;2023-07-31T07:55:18;2.63;;;1.25;;
21424;SDS011;10873;51.132;16.848;2023-07-31T07:57:44;1.65;;;1.13;;
21424;SDS011;10873;51.132;16.848;2023-07-31T08:00:10;3.90;;;1.42;;
21424;SDS011;10873;51.132;16.848;2023-07-31T08:02:37;5.18;;;1.23;;
21424;SDS011;10873;51.132;16.848;2023-07-31T08:05:03;4.20;;;1.40;;
21424;SDS011;10873;51.132;16.848;2023-07-31T08:07:30;2.65;;;1.63;;
21424;SDS011;10873;51.132;16.848;2023-07-31T08:09:57;9.95;;;1.60;;
21424;SDS011;10873;51.132;16.848;2023-07-31T08:12:23;3.05;;;1.30;;
21424;SDS011;10873;51.132;16.848;2023-07-31T08:14:49;3.75;;;1.35;;
21424;SDS011;10873;51.132;16.848;2023-07-31T08:17:15;2.88;;;1.20;;
21424;SDS011;10873;51.132;16.848;2023-07-31T08:19:42;2.83;;;1.33;;
21424;SDS011;10873;51.132;16.848;2023-07-31T08:22:09;11.73;;;1.60;;
21424;SDS011;10873;51.132;16.848;2023-07-31T08:24:35;2.85;;;1.17;;
21424;SDS011;10873;51.132;16.848;2023-07-31T08:27:03;2.20;;;0.93;;
21424;SDS011;10873;51.132;16.848;2023-07-31T08:29:31;4.53;;;1.48;;
21424;SDS011;10873;51.132;16.848;2023-07-31T08:31:57;5.45;;;1.52;;
21424;SDS011;10873;51.132;16.848;2023-07-31T08:34:23;3.50;;;1.08;;
21424;SDS011;10873;51.132;16.848;2023-07-31T08:36:49;5.25;;;1.45;;
21424;SDS011;10873;51.132;16.848;2023-07-31T08:39:15;7.25;;;1.42;;
21424;SDS011;10873;51.132;16.848;2023-07-31T08:41:41;2.20;;;1.40;;
21424;SDS011;10873;51.132;16.848;2023-07-31T08:44:08;2.53;;;1.30;;
21424;SDS011;10873;51.132;16.848;2023-07-31T08:46:36;4.75;;;1.38;;
21424;SDS011;10873;51.132;16.848;2023-07-31T08:49:04;3.88;;;1.45;;
21424;SDS011;10873;51.132;16.848;2023-07-31T08:51:31;3.80;;;1.45;;
21424;SDS011;10873;51.132;16.848;2023-07-31T08:53:59;4.75;;;1.45;;
21424;SDS011;10873;51.132;16.848;2023-07-31T08:56:25;5.68;;;1.65;;
21424;SDS011;10873;51.132;16.848;2023-07-31T08:58:52;3.38;;;1.27;;
21424;SDS011;10873;51.132;16.848;2023-07-31T09:01:21;5.53;;;1.45;;
21424;SDS011;10873;51.132;16.848;2023-07-31T09:03:48;6.45;;;1.48;;
21424;SDS011;10873;51.132;16.848;2023-07-31T09:06:16;4.70;;;1.42;;
21424;SDS011;10873;51.132;16.848;2023-07-31T09:08:46;3.00;;;1.27;;
21424;SDS011;10873;51.132;16.848;2023-07-31T09:11:12;2.85;;;1.50;;
21424;SDS011;10873;51.132;16.848;2023-07-31T09:13:39;5.20;;;1.70;;
21424;SDS011;10873;51.132;16.848;2023-07-31T09:16:07;3.17;;;1.40;;
21424;SDS011;10873;51.132;16.848;2023-07-31T09:18:41;7.32;;;1.52;;
21424;SDS011;10873;51.132;16.848;2023-07-31T09:21:18;3.60;;;1.50;;
21424;SDS011;10873;51.132;16.848;2023-07-31T09:23:45;5.50;;;1.70;;
21424;SDS011;10873;51.132;16.848;2023-07-31T09:26:16;4.07;;;1.63;;
21424;SDS011;10873;51.132;16.848;2023-07-31T09:28:55;6.75;;;1.60;;
21424;SDS011;10873;51.132;16.848;2023-07-31T09:31:31;4.68;;;1.50;;
21424;SDS011;10873;51.132;16.848;2023-07-31T09:33:59;4.65;;;1.65;;
21424;SDS011;10873;51.132;16.848;2023-07-31T09:36:28;5.28;;;1.77;;
21424;SDS011;10873;51.132;16.848;2023-07-31T09:38:55;7.57;;;1.70;;
21424;SDS011;10873;51.132;16.848;2023-07-31T09:41:23;5.45;;;1.70;;
21424;SDS011;10873;51.132;16.848;2023-07-31T09:43:53;4.53;;;1.77;;
21424;SDS011;10873;51.132;16.848;2023-07-31T09:46:20;9.25;;;1.80;;
21424;SDS011;10873;51.132;16.848;2023-07-31T09:48:47;7.40;;;1.88;;
21424;SDS011;10873;51.132;16.848;2023-07-31T09:51:15;6.32;;;1.60;;
21424;SDS011;10873;51.132;16.848;2023-07-31T09:53:41;3.50;;;1.38;;
21424;SDS011;10873;51.132;16.848;2023-07-31T09:56:15;3.00;;;1.33;;
21424;SDS011;10873;51.132;16.848;2023-07-31T09:58:44;7.38;;;1.80;;
21424;SDS011;10873;51.132;16.848;2023-07-31T10:01:11;4.75;;;1.38;;
21424;SDS011;10873;51.132;16.848;2023-07-31T10:03:37;4.65;;;1.50;;
21424;SDS011;10873;51.132;16.848;2023-07-31T10:06:05;4.30;;;1.23;;
21424;SDS011;10873;51.132;16.848;2023-07-31T10:08:37;3.42;;;1.63;;
21424;SDS011;10873;51.132;16.848;2023-07-31T10:11:05;5.32;;;1.77;;
21424;SDS011;10873;51.132;16.848;2023-07-31T10:13:34;4.60;;;1.83;;
21424;SDS011;10873;51.132;16.848;2023-07-31T10:16:01;5.00;;;1.80;;
21424;SDS011;10873;51.132;16.848;2023-07-31T10:18:28;3.67;;;1.48;;
21424;SDS011;10873;51.132;16.848;2023-07-31T10:20:55;2.58;;;1.45;;
21424;SDS011;10873;51.132;16.848;2023-07-31T10:23:22;3.63;;;1.40;;
21424;SDS011;10873;51.132;16.848;2023-07-31T10:25:52;3.35;;;1.48;;
21424;SDS011;10873;51.132;16.848;2023-07-31T10:28:20;4.43;;;1.38;;
21424;SDS011;10873;51.132;16.848;2023-07-31T10:30:46;4.30;;;1.58;;
21424;SDS011;10873;51.132;16.848;2023-07-31T10:33:12;4.38;;;1.60;;
21424;SDS011;10873;51.132;16.848;2023-07-31T10:35:39;5.13;;;1.50;;
21424;SDS011;10873;51.132;16.848;2023-07-31T10:38:09;5.45;;;1.40;;
21424;SDS011;10873;51.132;16.848;2023-07-31T10:40:36;6.60;;;1.65;;
21424;SDS011;10873;51.132;16.848;2023-07-31T10:43:04;4.05;;;1.35;;
21424;SDS011;10873;51.132;16.848;2023-07-31T10:45:35;3.78;;;1.38;;
21424;SDS011;10873;51.132;16.848;2023-07-31T10:48:03;4.38;;;1.40;;
21424;SDS011;10873;51.132;16.848;2023-07-31T10:50:30;1.85;;;1.10;;
21424;SDS011;10873;51.132;16.848;2023-07-31T10:52:58;1.95;;;1.20;;
21424;SDS011;10873;51.132;16.848;2023-07-31T10:55:27;2.60;;;1.58;;
21424;SDS011;10873;51.132;16.848;2023-07-31T10:57:55;2.50;;;1.30;;
21424;SDS011;10873;51.132;16.848;2023-07-31T11:00:24;4.25;;;1.70;;
21424;SDS011;10873;51.132;16.848;2023-07-31T11:02:59;3.55;;;1.23;;
21424;SDS011;10873;51.132;16.848;2023-07-31T11:05:43;1.90;;;1.30;;
21424;SDS011;10873;51.132;16.848;2023-07-31T11:08:11;3.25;;;1.38;;
21424;SDS011;10873;51.132;16.848;2023-07-31T11:10:38;2.88;;;1.35;;
21424;SDS011;10873;51.132;16.848;2023-07-31T11:13:05;5.80;;;1.23;;
21424;SDS011;10873;51.132;16.848;2023-07-31T11:15:32;2.17;;;1.27;;
21424;SDS011;10873;51.132;16.848;2023-07-31T11:17:59;1.85;;;1.20;;
21424;SDS011;10873;51.132;16.848;2023-07-31T11:20:25;6.43;;;1.70;;
21424;SDS011;10873;51.132;16.848;2023-07-31T11:22:52;1.52;;;1.27;;
21424;SDS011;10873;51.132;16.848;2023-07-31T11:25:18;4.40;;;1.50;;
21424;SDS011;10873;51.132;16.848;2023-07-31T11:27:44;2.15;;;1.13;;
21424;SDS011;10873;51.132;16.848;2023-07-31T11:30:11;2.75;;;1.40;;
21424;SDS011;10873;51.132;16.848;2023-07-31T11:32:38;3.15;;;1.20;;
21424;SDS011;10873;51.132;16.848;2023-07-31T11:35:05;4.90;;;1.58;;
21424;SDS011;10873;51.132;16.848;2023-07-31T11:37:39;3.72;;;1.52;;
21424;SDS011;10873;51.132;16.848;2023-07-31T11:40:06;2.75;;;1.58;;
21424;SDS011;10873;51.132;16.848;2023-07-31T11:42:34;2.33;;;1.50;;
21424;SDS011;10873;51.132;16.848;2023-07-31T11:45:01;3.95;;;1.52;;
21424;SDS011;10873;51.132;16.848;2023-07-31T11:47:28;3.53;;;1.65;;
21424;SDS011;10873;51.132;16.848;2023-07-31T11:49:58;3.72;;;1.35;;
21424;SDS011;10873;51.132;16.848;2023-07-31T11:52:25;3.35;;;1.55;;
21424;SDS011;10873;51.132;16.848;2023-07-31T11:54:52;2.38;;;1.55;;
21424;SDS011;10873;51.132;16.848;2023-07-31T11:57:18;6.57;;;1.60;;
21424;SDS011;10873;51.132;16.848;2023-07-31T11:59:45;2.38;;;1.70;;
21424;SDS011;10873;51.132;16.848;2023-07-31T12:02:12;2.75;;;1.50;;
21424;SDS011;10873;51.132;16.848;2023-07-31T12:04:38;4.10;;;1.70;;
21424;SDS011;10873;51.132;16.848;2023-07-31T12:07:06;4.65;;;1.63;;
21424;SDS011;10873;51.132;16.848;2023-07-31T12:09:33;4.22;;;1.55;;
21424;SDS011;10873;51.132;16.848;2023-07-31T12:11:59;3.25;;;1.80;;
21424;SDS011;10873;51.132;16.848;2023-07-31T12:14:26;4.85;;;1.70;;
21424;SDS011;10873;51.132;16.848;2023-07-31T12:16:58;3.47;;;1.70;;
21424;SDS011;10873;51.132;16.848;2023-07-31T12:19:25;7.18;;;1.90;;
21424;SDS011;10873;51.132;16.848;2023-07-31T12:21:56;2.47;;;1.80;;
21424;SDS011;10873;51.132;16.848;2023-07-31T12:24:24;6.47;;;1.75;;
21424;SDS011;10873;51.132;16.848;2023-07-31T12:26:52;7.07;;;1.50;;
21424;SDS011;10873;51.132;16.848;2023-07-31T12:29:18;2.50;;;1.58;;
21424;SDS011;10873;51.132;16.848;2023-07-31T12:31:44;6.15;;;1.95;;
21424;SDS011;10873;51.132;16.848;2023-07-31T12:34:17;2.70;;;1.60;;
21424;SDS011;10873;51.132;16.848;2023-07-31T12:36:46;5.03;;;1.67;;
21424;SDS011;10873;51.132;16.848;2023-07-31T12:39:14;2.50;;;1.70;;
21424;SDS011;10873;51.132;16.848;2023-07-31T12:41:41;2.47;;;1.70;;
21424;SDS011;10873;51.132;16.848;2023-07-31T12:44:07;3.60;;;1.67;;
21424;SDS011;10873;51.132;16.848;2023-07-31T12:46:35;5.97;;;2.00;;
21424;SDS011;10873;51.132;16.848;2023-07-31T12:49:01;5.25;;;2.13;;
21424;SDS011;10873;51.132;16.848;2023-07-31T12:51:28;3.45;;;1.92;;
21424;SDS011;10873;51.132;16.848;2023-07-31T12:53:53;4.13;;;2.08;;
21424;SDS011;10873;51.132;16.848;2023-07-31T12:56:20;2.88;;;1.80;;
21424;SDS011;10873;51.132;16.848;2023-07-31T12:58:47;3.58;;;1.90;;
21424;SDS011;10873;51.132;16.848;2023-07-31T13:01:13;2.10;;;1.73;;
21424;SDS011;10873;51.132;16.848;2023-07-31T13:03:39;6.55;;;2.10;;
21424;SDS011;10873;51.132;16.848;2023-07-31T13:06:05;6.55;;;2.13;;
21424;SDS011;10873;51.132;16.848;2023-07-31T13:08:31;2.97;;;1.88;;
21424;SDS011;10873;51.132;16.848;2023-07-31T13:10:57;3.33;;;1.70;;
21424;SDS011;10873;51.132;16.848;2023-07-31T13:13:23;4.75;;;1.92;;
21424;SDS011;10873;51.132;16.848;2023-07-31T13:15:51;4.45;;;1.95;;
21424;SDS011;10873;51.132;16.848;2023-07-31T13:18:17;4.07;;;1.60;;
21424;SDS011;10873;51.132;16.848;2023-07-31T13:20:43;2.85;;;1.73;;
21424;SDS011;10873;51.132;16.848;2023-07-31T13:23:09;4.10;;;1.80;;
21424;SDS011;10873;51.132;16.848;2023-07-31T13:25:35;4.32;;;1.60;;
21424;SDS011;10873;51.132;16.848;2023-07-31T13:28:01;1.95;;;1.75;;
21424;SDS011;10873;51.132;16.848;2023-07-31T13:30:27;2.80;;;1.90;;
21424;SDS011;10873;51.132;16.848;2023-07-31T13:32:55;4.43;;;1.70;;
21424;SDS011;10873;51.132;16.848;2023-07-31T13:35:21;4.43;;;1.80;;
21424;SDS011;10873;51.132;16.848;2023-07-31T13:37:46;2.85;;;1.77;;
21424;SDS011;10873;51.132;16.848;2023-07-31T13:40:13;4.50;;;1.98;;
21424;SDS011;10873;51.132;16.848;2023-07-31T13:42:38;3.00;;;2.05;;
21424;SDS011;10873;51.132;16.848;2023-07-31T13:45:05;6.95;;;2.17;;
21424;SDS011;10873;51.132;16.848;2023-07-31T13:47:31;3.08;;;1.90;;
21424;SDS011;10873;51.132;16.848;2023-07-31T13:50:00;3.83;;;1.90;;
21424;SDS011;10873;51.132;16.848;2023-07-31T13:52:26;8.25;;;2.30;;
21424;SDS011;10873;51.132;16.848;2023-07-31T13:54:52;4.20;;;2.30;;
21424;SDS011;10873;51.132;16.848;2023-07-31T13:57:18;3.55;;;2.15;;
21424;SDS011;10873;51.132;16.848;2023-07-31T13:59:44;7.45;;;2.30;;
21424;SDS011;10873;51.132;16.848;2023-07-31T14:02:10;5.97;;;2.42;;
21424;SDS011;10873;51.132;16.848;2023-07-31T14:04:36;5.38;;;2.15;;
21424;SDS011;10873;51.132;16.848;2023-07-31T14:07:04;3.25;;;1.90;;
21424;SDS011;10873;51.132;16.848;2023-07-31T14:09:30;2.35;;;2.00;;
21424;SDS011;10873;51.132;16.848;2023-07-31T14:11:56;3.78;;;2.17;;
21424;SDS011;10873;51.132;16.848;2023-07-31T14:14:22;3.45;;;2.20;;
21424;SDS011;10873;51.132;16.848;2023-07-31T14:16:48;5.22;;;2.22;;
21424;SDS011;10873;51.132;16.848;2023-07-31T14:19:14;6.38;;;2.15;;
21424;SDS011;10873;51.132;16.848;2023-07-31T14:21:40;2.40;;;1.92;;
21424;SDS011;10873;51.132;16.848;2023-07-31T14:24:08;4.15;;;2.08;;
21424;SDS011;10873;51.132;16.848;2023-07-31T14:26:33;2.58;;;1.95;;
21424;SDS011;10873;51.132;16.848;2023-07-31T14:29:00;2.60;;;2.00;;
21424;SDS011;10873;51.132;16.848;2023-07-31T14:31:26;4.63;;;2.15;;
21424;SDS011;10873;51.132;16.848;2023-07-31T14:33:52;4.30;;;2.05;;
21424;SDS011;10873;51.132;16.848;2023-07-31T14:36:18;3.03;;;1.98;;
21424;SDS011;10873;51.132;16.848;2023-07-31T14:38:44;4.88;;;1.80;;
21424;SDS011;10873;51.132;16.848;2023-07-31T14:41:11;4.25;;;1.67;;
21424;SDS011;10873;51.132;16.848;2023-07-31T14:43:37;1.90;;;1.60;;
21424;SDS011;10873;51.132;16.848;2023-07-31T14:46:03;3.63;;;1.80;;
21424;SDS011;10873;51.132;16.848;2023-07-31T14:48:30;4.50;;;1.80;;